createdAt,value
2022-09-21T00:01:22.196Z,1.60
2022-09-21T00:03:48.653Z,1.51
2022-09-21T00:06:15.027Z,1.65
2022-09-21T00:08:41.352Z,1.52
2022-09-21T00:11:07.698Z,1.55
2022-09-21T00:13:34.107Z,1.66
2022-09-21T00:16:00.430Z,1.74
2022-09-21T00:18:26.759Z,1.74
2022-09-21T00:20:53.082Z,1.71
2022-09-21T00:23:19.382Z,1.43
2022-09-21T00:25:45.704Z,1.31
2022-09-21T00:28:12.044Z,1.76
2022-09-21T00:30:38.375Z,1.49
2022-09-21T00:33:04.694Z,1.39
2022-09-21T00:35:31.011Z,1.49
2022-09-21T00:37:57.342Z,1.45
2022-09-21T00:40:23.701Z,1.44
2022-09-21T00:42:50.109Z,1.46
2022-09-21T00:45:16.425Z,1.47
2022-09-21T00:47:42.722Z,1.35
2022-09-21T00:50:09.026Z,1.33
2022-09-21T00:52:35.342Z,1.37
2022-09-21T00:55:01.705Z,1.42
2022-09-21T00:57:28.033Z,1.38
2022-09-21T00:59:54.363Z,1.57
2022-09-21T01:02:20.774Z,1.14
2022-09-21T01:04:47.145Z,1.48
2022-09-21T01:07:13.464Z,1.38
2022-09-21T01:09:39.787Z,1.40
2022-09-21T01:12:06.117Z,1.60
2022-09-21T01:14:32.451Z,1.39
2022-09-21T01:16:58.787Z,1.38
2022-09-21T01:19:25.085Z,1.34
2022-09-21T01:21:51.402Z,1.32
2022-09-21T01:24:17.766Z,1.44
2022-09-21T01:26:44.082Z,1.54
2022-09-21T01:29:10.402Z,1.39
2022-09-21T01:31:36.762Z,1.66
2022-09-21T01:34:03.083Z,1.36
2022-09-21T01:36:29.479Z,1.39
2022-09-21T01:38:55.820Z,1.36
2022-09-21T01:41:22.133Z,1.36
2022-09-21T01:43:48.442Z,1.28
2022-09-21T01:46:14.783Z,1.29
2022-09-21T01:48:41.122Z,1.46
2022-09-21T01:51:07.427Z,1.52
2022-09-21T01:53:33.753Z,1.31
2022-09-21T01:56:00.077Z,1.28
2022-09-21T01:58:26.412Z,1.36
2022-09-21T02:00:52.793Z,1.51
2022-09-21T02:03:19.135Z,1.34
2022-09-21T02:05:45.475Z,1.50
2022-09-21T02:08:11.809Z,1.35
2022-09-21T02:10:38.117Z,1.37
2022-09-21T02:13:04.438Z,1.38
2022-09-21T02:15:30.758Z,1.35
2022-09-21T02:17:57.126Z,1.29
2022-09-21T02:20:23.453Z,1.26
2022-09-21T02:22:49.770Z,1.24
2022-09-21T02:25:16.097Z,1.14
2022-09-21T02:27:42.411Z,1.23
2022-09-21T02:30:08.747Z,1.32
2022-09-21T02:32:35.091Z,1.21
2022-09-21T02:35:01.419Z,1.37
2022-09-21T02:37:27.738Z,1.30
2022-09-21T02:39:54.046Z,1.47
2022-09-21T02:42:20.351Z,1.28
2022-09-21T02:44:46.758Z,1.35
2022-09-21T02:47:13.069Z,1.41
2022-09-21T02:49:39.381Z,1.32
2022-09-21T02:52:05.691Z,1.26
2022-09-21T02:54:32.001Z,1.28
2022-09-21T02:56:58.335Z,1.41
2022-09-21T02:59:24.649Z,1.43
2022-09-21T03:01:51.016Z,1.38
2022-09-21T03:04:17.410Z,1.41
2022-09-21T03:06:43.724Z,1.26
2022-09-21T03:09:10.042Z,1.29
2022-09-21T03:11:36.398Z,1.19
2022-09-21T03:14:02.737Z,1.30
2022-09-21T03:16:29.099Z,1.42
2022-09-21T03:18:55.424Z,1.23
2022-09-21T03:21:21.755Z,1.70
2022-09-21T03:23:48.087Z,1.30
2022-09-21T03:26:14.444Z,1.33
2022-09-21T03:28:40.774Z,1.35
2022-09-21T03:31:07.153Z,1.20
2022-09-21T03:33:33.500Z,1.24
2022-09-21T03:35:59.832Z,1.46
2022-09-21T03:38:26.166Z,1.16
2022-09-21T03:40:52.474Z,1.16
2022-09-21T03:43:18.794Z,1.23
2022-09-21T03:45:45.110Z,1.28
2022-09-21T03:48:11.411Z,1.05
2022-09-21T03:50:37.727Z,1.08
2022-09-21T03:53:04.072Z,1.37
2022-09-21T03:55:30.419Z,1.71
2022-09-21T03:57:56.716Z,1.32
2022-09-21T04:00:23.037Z,1.54
2022-09-21T04:02:49.410Z,1.37
2022-09-21T04:05:15.762Z,1.32
2022-09-21T04:07:42.079Z,1.38
2022-09-21T04:10:08.398Z,1.21
2022-09-21T04:12:34.711Z,1.50
2022-09-21T04:15:01.033Z,1.33
2022-09-21T04:17:27.349Z,1.16
2022-09-21T04:19:53.679Z,1.36
2022-09-21T04:22:20.012Z,1.29
2022-09-21T04:24:46.335Z,1.23
2022-09-21T04:27:12.676Z,1.71
2022-09-21T04:29:39.014Z,1.59
2022-09-21T04:32:05.338Z,1.33
2022-09-21T04:34:31.650Z,1.31
2022-09-21T04:36:57.963Z,1.27
2022-09-21T04:39:24.260Z,1.29
2022-09-21T04:41:50.584Z,1.35
2022-09-21T04:44:16.918Z,1.24
2022-09-21T04:46:43.248Z,1.32
2022-09-21T04:49:09.579Z,1.34
2022-09-21T04:51:35.902Z,1.34
2022-09-21T04:54:02.210Z,1.25
2022-09-21T04:56:28.525Z,1.15
2022-09-21T04:58:54.885Z,1.32
2022-09-21T05:01:21.288Z,1.32
2022-09-21T05:03:47.734Z,1.27
2022-09-21T05:06:14.117Z,1.39
2022-09-21T05:08:40.446Z,1.23
2022-09-21T05:11:06.757Z,1.29
2022-09-21T05:13:33.094Z,1.17
2022-09-21T05:15:59.485Z,1.44
2022-09-21T05:18:25.835Z,1.54
2022-09-21T05:20:52.164Z,1.20
2022-09-21T05:23:18.512Z,1.21
2022-09-21T05:25:44.818Z,1.27
2022-09-21T05:28:11.165Z,1.11
2022-09-21T05:30:37.599Z,1.34
2022-09-21T05:33:03.970Z,1.18
2022-09-21T05:35:30.303Z,1.16
2022-09-21T05:37:56.636Z,1.17
2022-09-21T05:40:22.996Z,1.19
2022-09-21T05:42:49.336Z,1.30
2022-09-21T05:45:15.640Z,1.33
2022-09-21T05:47:42.055Z,1.36
2022-09-21T05:50:08.372Z,1.29
2022-09-21T05:52:34.678Z,1.22
2022-09-21T05:55:01.000Z,1.15
2022-09-21T05:57:30.645Z,1.20
2022-09-21T05:59:57.335Z,1.34
2022-09-21T06:02:23.708Z,1.40
2022-09-21T06:04:50.052Z,1.18
2022-09-21T06:07:16.410Z,1.16
2022-09-21T06:09:43.397Z,1.21
2022-09-21T06:12:09.779Z,1.22
2022-09-21T06:14:36.092Z,1.82
2022-09-21T06:17:02.405Z,2.05
2022-09-21T06:19:28.735Z,2.56
2022-09-21T06:21:55.090Z,4.18
2022-09-21T06:24:23.553Z,8.55
2022-09-21T06:26:50.903Z,8.95
2022-09-21T06:29:17.232Z,9.77
2022-09-21T06:31:43.553Z,11.88
2022-09-21T06:34:09.892Z,11.77
2022-09-21T06:36:36.215Z,10.83
2022-09-21T06:39:02.536Z,10.81
2022-09-21T06:41:28.886Z,10.66
2022-09-21T06:43:55.315Z,10.22
2022-09-21T06:46:21.728Z,10.08
2022-09-21T06:48:48.193Z,9.81
2022-09-21T06:51:14.527Z,9.98
2022-09-21T06:53:40.850Z,9.71
2022-09-21T06:56:07.174Z,9.35
2022-09-21T06:58:33.482Z,9.24
2022-09-21T07:00:59.928Z,8.90
2022-09-21T07:03:26.341Z,9.23
2022-09-21T07:05:52.713Z,9.09
2022-09-21T07:11:05.330Z,8.52
2022-09-21T07:13:31.667Z,8.24
2022-09-21T07:15:57.984Z,8.16
2022-09-21T07:18:24.305Z,7.93
2022-09-21T07:20:50.635Z,8.09
2022-09-21T07:23:16.970Z,7.98
2022-09-21T07:25:43.287Z,7.49
2022-09-21T07:28:09.603Z,7.72
2022-09-21T07:30:35.928Z,7.85
2022-09-21T07:33:02.224Z,7.82
2022-09-21T07:35:28.552Z,7.71
2022-09-21T07:37:54.863Z,8.15
2022-09-21T07:40:25.023Z,7.73
2022-09-21T07:42:51.706Z,7.27
2022-09-21T07:45:18.012Z,7.31
2022-09-21T07:47:44.347Z,7.25
2022-09-21T07:50:10.674Z,7.17
2022-09-21T07:52:37.015Z,6.92
2022-09-21T07:55:03.434Z,6.32
2022-09-21T07:57:29.759Z,6.72
2022-09-21T07:59:56.128Z,6.20
2022-09-21T08:02:22.550Z,5.71
2022-09-21T08:04:48.976Z,5.34
2022-09-21T08:07:15.311Z,5.34
2022-09-21T08:09:41.638Z,5.00
2022-09-21T08:12:07.983Z,5.13
2022-09-21T08:14:34.297Z,5.18
2022-09-21T08:17:00.621Z,4.86
2022-09-21T08:19:26.951Z,5.16
2022-09-21T08:21:57.290Z,5.18
2022-09-21T08:24:24.305Z,4.86
2022-09-21T08:26:50.644Z,4.88
2022-09-21T08:29:16.967Z,5.15
2022-09-21T08:31:43.386Z,5.20
2022-09-21T08:34:09.781Z,5.66
2022-09-21T08:36:36.106Z,5.27
2022-09-21T08:39:02.429Z,5.30
2022-09-21T08:41:28.762Z,5.36
2022-09-21T08:43:55.097Z,4.98
2022-09-21T08:46:21.459Z,4.66
2022-09-21T08:48:47.814Z,4.46
2022-09-21T08:51:14.149Z,3.86
2022-09-21T08:53:40.603Z,4.04
2022-09-21T08:56:06.939Z,3.95
2022-09-21T08:58:33.270Z,3.80
2022-09-21T09:01:02.459Z,3.93
2022-09-21T09:03:32.575Z,3.71
2022-09-21T09:05:58.938Z,3.94
2022-09-21T09:08:25.246Z,4.02
2022-09-21T09:10:51.573Z,3.89
2022-09-21T09:13:17.891Z,3.81
2022-09-21T09:15:44.265Z,3.69
2022-09-21T09:18:10.603Z,3.66
2022-09-21T09:20:36.949Z,3.83
2022-09-21T09:23:03.274Z,3.86
2022-09-21T09:25:29.581Z,3.51
2022-09-21T09:27:55.907Z,3.71
2022-09-21T09:30:22.275Z,3.60
2022-09-21T09:32:48.695Z,3.63
2022-09-21T09:35:15.019Z,3.65
2022-09-21T09:37:41.337Z,3.39
2022-09-21T09:40:07.691Z,3.23
2022-09-21T09:42:34.144Z,3.63
2022-09-21T09:45:00.521Z,3.45
2022-09-21T09:47:26.883Z,3.53
2022-09-21T09:49:53.209Z,3.47
2022-09-21T09:52:19.560Z,3.17
2022-09-21T09:54:45.913Z,3.19
2022-09-21T09:57:12.242Z,3.26
2022-09-21T09:59:38.575Z,3.06
2022-09-21T10:02:04.947Z,3.27
2022-09-21T10:04:31.328Z,3.03
2022-09-21T10:06:57.683Z,3.28
2022-09-21T10:09:24.043Z,3.06
2022-09-21T10:11:50.443Z,3.25
2022-09-21T10:14:16.747Z,3.32
2022-09-21T10:16:43.122Z,3.12
2022-09-21T10:19:09.471Z,3.10
2022-09-21T10:21:35.795Z,2.89
2022-09-21T10:24:02.115Z,3.04
2022-09-21T10:26:28.439Z,3.00
2022-09-21T10:28:54.796Z,2.88
2022-09-21T10:31:21.252Z,2.74
2022-09-21T10:33:47.581Z,2.94
2022-09-21T10:36:13.916Z,2.80
2022-09-21T10:38:40.245Z,2.85
2022-09-21T10:41:06.579Z,3.05
2022-09-21T10:43:34.757Z,2.75
2022-09-21T10:46:02.324Z,3.02
2022-09-21T10:48:28.722Z,2.85
2022-09-21T10:50:55.042Z,3.02
2022-09-21T10:53:21.404Z,3.16
2022-09-21T10:55:58.505Z,2.92
2022-09-21T10:58:34.023Z,2.56
2022-09-21T11:01:00.353Z,2.89
2022-09-21T11:03:26.887Z,2.69
2022-09-21T11:05:53.328Z,2.65
2022-09-21T11:08:19.701Z,2.64
2022-09-21T11:10:46.117Z,2.53
2022-09-21T11:13:12.450Z,3.22
2022-09-21T11:15:38.836Z,3.08
2022-09-21T11:18:05.229Z,2.42
2022-09-21T11:20:31.544Z,2.77
2022-09-21T11:22:57.935Z,2.54
2022-09-21T11:25:24.303Z,2.68
2022-09-21T11:27:50.617Z,2.61
2022-09-21T11:30:16.951Z,2.48
2022-09-21T11:32:43.265Z,2.40
2022-09-21T11:35:09.577Z,2.48
2022-09-21T11:37:35.884Z,2.43
2022-09-21T11:40:02.301Z,2.50
2022-09-21T11:42:28.751Z,2.66
2022-09-21T11:44:55.084Z,2.74
2022-09-21T11:47:21.424Z,2.72
2022-09-21T11:49:47.838Z,2.75
2022-09-21T11:52:14.285Z,2.84
2022-09-21T11:54:40.717Z,2.93
2022-09-21T11:57:07.060Z,2.68
2022-09-21T11:59:33.523Z,2.89
2022-09-21T12:02:00.234Z,2.77
2022-09-21T12:04:26.718Z,2.98
2022-09-21T12:06:53.047Z,2.70
2022-09-21T12:09:19.380Z,3.00
2022-09-21T12:11:45.703Z,2.60
2022-09-21T12:14:12.123Z,2.47
2022-09-21T12:16:38.474Z,2.86
2022-09-21T12:19:04.932Z,2.79
2022-09-21T12:21:31.328Z,2.78
2022-09-21T12:23:57.658Z,2.78
2022-09-21T12:26:23.992Z,2.45
2022-09-21T12:28:50.322Z,2.73
2022-09-21T12:31:16.686Z,2.93
2022-09-21T12:33:43.026Z,2.68
2022-09-21T12:36:09.404Z,2.91
2022-09-21T12:38:35.723Z,2.77
2022-09-21T12:41:02.059Z,2.44
2022-09-21T12:43:28.382Z,2.63
2022-09-21T12:45:54.741Z,2.61
2022-09-21T12:48:21.102Z,2.54
2022-09-21T12:50:47.446Z,2.61
2022-09-21T12:53:13.780Z,2.83
2022-09-21T12:55:40.091Z,2.74
2022-09-21T12:58:21.641Z,2.66
2022-09-21T13:00:47.956Z,2.67
2022-09-21T13:03:14.408Z,2.69
2022-09-21T13:05:40.910Z,2.49
2022-09-21T13:08:07.266Z,2.55
2022-09-21T13:10:33.590Z,2.51
2022-09-21T13:12:59.920Z,2.55
2022-09-21T13:15:26.249Z,2.52
2022-09-21T13:17:52.583Z,2.98
2022-09-21T13:20:18.957Z,2.75
2022-09-21T13:22:45.284Z,2.75
2022-09-21T13:25:11.603Z,2.64
2022-09-21T13:27:37.936Z,2.99
2022-09-21T13:30:04.251Z,2.62
2022-09-21T13:32:30.618Z,2.49
2022-09-21T13:34:56.982Z,2.42
2022-09-21T13:37:23.316Z,2.38
2022-09-21T13:39:49.646Z,2.48
2022-09-21T13:42:15.975Z,2.52
2022-09-21T13:44:42.309Z,2.84
2022-09-21T13:47:08.650Z,2.49
2022-09-21T13:49:34.987Z,2.77
2022-09-21T13:52:01.315Z,2.75
2022-09-21T13:54:27.656Z,2.58
2022-09-21T13:56:53.989Z,2.50
2022-09-21T13:59:20.317Z,2.40
2022-09-21T14:01:47.616Z,2.30
2022-09-21T14:04:14.353Z,2.28
2022-09-21T14:06:40.699Z,2.49
2022-09-21T14:09:07.034Z,2.42
2022-09-21T14:11:33.380Z,3.17
2022-09-21T14:13:59.711Z,2.40
2022-09-21T14:16:26.094Z,2.41
2022-09-21T14:18:52.514Z,2.27
2022-09-21T14:21:18.909Z,2.13
2022-09-21T14:23:45.240Z,2.42
2022-09-21T14:26:11.598Z,2.42
2022-09-21T14:28:37.924Z,2.26
2022-09-21T14:31:04.245Z,2.48
2022-09-21T14:33:30.572Z,2.37
2022-09-21T14:35:57.138Z,2.41
2022-09-21T14:38:23.501Z,2.35
2022-09-21T14:40:49.825Z,2.72
2022-09-21T14:43:16.161Z,2.52
2022-09-21T14:45:42.527Z,2.61
2022-09-21T14:48:08.838Z,2.54
2022-09-21T14:50:35.153Z,2.62
2022-09-21T14:53:01.478Z,2.40
2022-09-21T14:55:27.813Z,2.47
2022-09-21T14:57:54.142Z,2.41
2022-09-21T15:00:20.462Z,2.16
2022-09-21T15:02:46.807Z,2.40
2022-09-21T15:05:13.123Z,2.36
2022-09-21T15:07:39.438Z,2.37
2022-09-21T15:10:05.766Z,2.29
2022-09-21T15:12:32.099Z,2.30
2022-09-21T15:14:58.434Z,2.20
2022-09-21T15:17:24.761Z,2.53
2022-09-21T15:19:51.093Z,2.36
2022-09-21T15:22:17.427Z,2.62
2022-09-21T15:24:43.742Z,2.30
2022-09-21T15:27:10.065Z,2.47
2022-09-21T15:29:36.395Z,2.29
2022-09-21T15:32:02.714Z,1.90
2022-09-21T15:34:29.037Z,2.11
2022-09-21T15:36:55.388Z,1.86
2022-09-21T15:39:21.711Z,1.81
2022-09-21T15:41:48.046Z,1.85
2022-09-21T15:44:14.362Z,1.73
2022-09-21T15:46:40.751Z,1.74
2022-09-21T15:49:07.207Z,1.74
2022-09-21T15:51:33.522Z,1.86
2022-09-21T15:53:59.863Z,1.69
2022-09-21T15:56:26.195Z,1.78
2022-09-21T15:58:52.539Z,1.73
2022-09-21T16:01:18.946Z,1.72
2022-09-21T16:03:45.430Z,1.76
2022-09-21T16:06:11.765Z,1.63
2022-09-21T16:08:38.106Z,1.89
2022-09-21T16:11:04.426Z,1.54
2022-09-21T16:13:30.738Z,1.66
2022-09-21T16:15:57.112Z,1.74
2022-09-21T16:18:23.487Z,1.82
2022-09-21T16:20:49.815Z,1.72
2022-09-21T16:23:16.128Z,1.72
2022-09-21T16:25:42.448Z,1.78
2022-09-21T16:28:08.783Z,1.59
2022-09-21T16:30:35.131Z,1.67
2022-09-21T16:33:01.468Z,1.98
2022-09-21T16:35:27.788Z,1.89
2022-09-21T16:37:54.114Z,1.98
2022-09-21T16:40:20.519Z,1.80
2022-09-21T16:42:46.899Z,1.87
2022-09-21T16:45:13.217Z,2.01
2022-09-21T16:47:39.538Z,1.84
2022-09-21T16:50:05.870Z,1.78
2022-09-21T16:52:32.200Z,1.84
2022-09-21T16:54:58.546Z,2.21
2022-09-21T16:57:24.898Z,2.10
2022-09-21T16:59:51.265Z,2.62
2022-09-21T17:02:17.637Z,2.09
2022-09-21T17:04:44.005Z,1.89
2022-09-21T17:07:10.380Z,1.82
2022-09-21T17:09:36.708Z,2.52
2022-09-21T17:12:03.038Z,3.93
2022-09-21T17:14:29.353Z,3.30
2022-09-21T17:16:55.685Z,2.62
2022-09-21T17:19:22.011Z,2.55
2022-09-21T17:21:48.331Z,2.71
2022-09-21T17:24:32.773Z,3.00
2022-09-21T17:27:00.979Z,4.41
2022-09-21T17:29:27.297Z,4.91
2022-09-21T17:31:53.622Z,4.77
2022-09-21T17:34:20.007Z,4.89
2022-09-21T17:36:46.322Z,4.80
2022-09-21T17:39:12.626Z,4.50
2022-09-21T17:41:38.944Z,4.39
2022-09-21T17:44:05.268Z,4.67
2022-09-21T17:46:31.657Z,4.61
2022-09-21T17:48:58.010Z,4.56
2022-09-21T17:51:24.346Z,4.67
2022-09-21T17:53:50.678Z,4.49
2022-09-21T17:56:16.995Z,4.65
2022-09-21T17:58:43.343Z,3.93
2022-09-21T18:01:09.663Z,4.60
2022-09-21T18:03:36.076Z,4.37
2022-09-21T18:06:02.429Z,4.41
2022-09-21T18:08:28.758Z,4.18
2022-09-21T18:10:55.082Z,4.29
2022-09-21T18:13:21.403Z,4.20
2022-09-21T18:15:47.774Z,4.15
2022-09-21T18:18:14.154Z,4.52
2022-09-21T18:20:40.487Z,4.22
2022-09-21T18:23:06.837Z,4.14
2022-09-21T18:25:33.152Z,4.36
2022-09-21T18:27:59.488Z,4.23
2022-09-21T18:30:25.825Z,4.31
2022-09-21T18:32:52.156Z,4.16
2022-09-21T18:35:18.481Z,3.80
2022-09-21T18:37:44.799Z,3.93
2022-09-21T18:40:11.151Z,3.93
2022-09-21T18:42:40.148Z,4.06
2022-09-21T18:45:06.825Z,3.84
2022-09-21T18:47:33.214Z,4.00
2022-09-21T18:49:59.582Z,3.98
2022-09-21T18:52:25.917Z,3.89
2022-09-21T18:54:52.301Z,4.05
2022-09-21T18:57:18.673Z,3.91
2022-09-21T18:59:45.040Z,3.91
2022-09-21T19:02:11.490Z,4.14
2022-09-21T19:04:37.898Z,4.03
2022-09-21T19:07:04.225Z,3.83
2022-09-21T19:09:30.559Z,3.89
2022-09-21T19:11:56.914Z,3.74
2022-09-21T19:14:23.242Z,3.72
2022-09-21T19:16:49.631Z,3.64
2022-09-21T19:19:15.969Z,3.41
2022-09-21T19:21:42.412Z,3.49
2022-09-21T19:24:08.899Z,3.90
2022-09-21T19:26:35.316Z,3.77
2022-09-21T19:29:01.706Z,3.65
2022-09-21T19:31:28.150Z,3.61
2022-09-21T19:33:54.540Z,3.41
2022-09-21T19:36:20.916Z,3.34
2022-09-21T19:38:47.245Z,3.37
2022-09-21T19:41:13.628Z,3.90
2022-09-21T19:43:39.990Z,4.70
2022-09-21T19:46:06.393Z,4.40
2022-09-21T19:48:32.798Z,4.32
2022-09-21T19:50:59.154Z,4.15
2022-09-21T19:53:25.501Z,4.12
2022-09-21T19:55:51.861Z,3.75
2022-09-21T19:58:18.198Z,3.26
2022-09-21T20:00:44.568Z,3.39
2022-09-21T20:03:10.892Z,3.83
2022-09-21T20:05:37.252Z,3.63
2022-09-21T20:08:03.611Z,3.55
2022-09-21T20:10:29.938Z,3.19
2022-09-21T20:12:56.300Z,3.11
2022-09-21T20:15:22.617Z,3.35
2022-09-21T20:17:48.965Z,3.40
2022-09-21T20:20:15.315Z,3.17
2022-09-21T20:22:41.675Z,4.15
2022-09-21T20:25:08.061Z,4.41
2022-09-21T20:27:34.389Z,3.95
2022-09-21T20:30:00.710Z,4.18
2022-09-21T20:32:27.093Z,3.98
2022-09-21T20:34:53.445Z,3.76
2022-09-21T20:37:19.824Z,3.66
2022-09-21T20:39:46.166Z,4.07
2022-09-21T20:42:12.494Z,3.86
2022-09-21T20:44:38.827Z,3.89
2022-09-21T20:47:05.160Z,3.77
2022-09-21T20:49:31.492Z,3.71
2022-09-21T20:51:57.815Z,3.83
2022-09-21T20:54:24.277Z,4.01
2022-09-21T20:56:50.660Z,3.66
2022-09-21T20:59:16.972Z,4.01
2022-09-21T21:01:43.448Z,3.65
2022-09-21T21:04:09.893Z,3.81
2022-09-21T21:06:36.319Z,3.74
2022-09-21T21:09:02.641Z,3.44
2022-09-21T21:11:28.992Z,3.47
2022-09-21T21:13:55.348Z,3.76
2022-09-21T21:16:21.662Z,3.51
2022-09-21T21:18:49.108Z,3.40
2022-09-21T21:21:15.446Z,3.28
2022-09-21T21:23:41.753Z,3.33
2022-09-21T21:26:08.070Z,3.23
2022-09-21T21:28:34.518Z,3.41
2022-09-21T21:31:00.860Z,3.36
2022-09-21T21:33:27.192Z,3.10
2022-09-21T21:35:53.523Z,2.88
2022-09-21T21:38:19.855Z,3.27
2022-09-21T21:40:46.286Z,2.85
2022-09-21T21:43:12.688Z,3.36
2022-09-21T21:45:39.067Z,3.13
2022-09-21T21:48:05.530Z,3.29
2022-09-21T21:50:31.861Z,2.89
2022-09-21T21:52:58.174Z,2.88
2022-09-21T21:55:24.507Z,2.98
2022-09-21T21:57:50.828Z,3.27
2022-09-21T22:00:17.167Z,2.83
2022-09-21T22:02:43.482Z,3.07
2022-09-21T22:05:09.813Z,3.48
2022-09-21T22:07:36.314Z,3.01
2022-09-21T22:10:02.693Z,2.77
2022-09-21T22:12:29.021Z,2.62
2022-09-21T22:14:55.338Z,3.18
2022-09-21T22:17:21.676Z,2.94
2022-09-21T22:19:47.987Z,2.76
2022-09-21T22:22:14.335Z,2.76
2022-09-21T22:24:40.660Z,2.86
2022-09-21T22:27:07.096Z,2.86
2022-09-21T22:29:33.442Z,2.87
2022-09-21T22:31:59.857Z,2.58
2022-09-21T22:34:26.245Z,2.69
2022-09-21T22:36:52.606Z,2.64
2022-09-21T22:39:18.934Z,2.94
2022-09-21T22:41:45.248Z,2.91
2022-09-21T22:44:11.624Z,2.63
2022-09-21T22:46:37.957Z,2.58
2022-09-21T22:49:04.301Z,2.75
2022-09-21T22:51:30.662Z,2.98
2022-09-21T22:53:57.043Z,2.47
2022-09-21T22:56:23.429Z,2.81
2022-09-21T22:58:49.744Z,2.64
2022-09-21T23:01:16.349Z,2.53
2022-09-21T23:03:42.822Z,2.61
2022-09-21T23:06:09.259Z,2.65
2022-09-21T23:08:35.573Z,2.55
2022-09-21T23:11:01.890Z,2.65
2022-09-21T23:13:28.208Z,2.65
2022-09-21T23:15:54.589Z,2.68
2022-09-21T23:18:21.014Z,2.73
2022-09-21T23:20:47.330Z,2.44
2022-09-21T23:23:13.654Z,2.43
2022-09-21T23:25:39.959Z,2.43
2022-09-21T23:28:06.282Z,2.57
2022-09-21T23:30:32.624Z,2.43
2022-09-21T23:32:58.966Z,2.44
2022-09-21T23:35:25.278Z,2.53
2022-09-21T23:37:51.647Z,2.39
2022-09-21T23:40:18.088Z,2.43
2022-09-21T23:42:44.489Z,2.30
2022-09-21T23:45:10.820Z,2.11
2022-09-21T23:47:37.138Z,2.33
2022-09-21T23:50:03.469Z,2.27
2022-09-21T23:52:29.809Z,2.50
2022-09-21T23:54:56.137Z,2.64
2022-09-21T23:57:22.464Z,2.33
2022-09-21T23:59:48.807Z,2.35
